September 25, 2017 5:34 AM EDT
Weather Information
Wind Direction
  ---
Wind Speed
  00 kt (0 mph)
Wind Gust
  00 kt (0 mph)
Altimeter
30.05 in
Visibility
10 SM
Temperature
17° C
63° F
Dewpoint
15° C
59° F
Humidity
88%
Sky Condition
Clear
VFR

METAR KIMS 250934Z AUTO 00000KT 10SM CLR 17/15 A3005 RMK AO1

*Background is not an actual portrayal of the airport.